createdAt,value
2022-11-27T00:00:06.475Z,1006.55
2022-11-27T00:00:16.716Z,1006.55
2022-11-27T00:00:26.964Z,1006.55
2022-11-27T00:00:37.206Z,1006.55
2022-11-27T00:00:47.454Z,1006.54
2022-11-27T00:00:57.692Z,1006.54
2022-11-27T00:01:07.939Z,1006.53
2022-11-27T00:01:18.204Z,1006.52
2022-11-27T00:01:28.447Z,1006.53
2022-11-27T00:01:38.687Z,1006.53
2022-11-27T00:01:48.931Z,1006.53
2022-11-27T00:01:59.178Z,1006.54
2022-11-27T00:02:09.491Z,1006.54
2022-11-27T00:02:19.804Z,1006.55
2022-11-27T00:02:30.169Z,1006.55
2022-11-27T00:02:41.052Z,1006.54
2022-11-27T00:02:51.449Z,1006.54
2022-11-27T00:03:01.224Z,1006.55
2022-11-27T00:03:11.679Z,1006.56
2022-11-27T00:03:21.993Z,1006.58
2022-11-27T00:03:32.201Z,1006.59
2022-11-27T00:03:42.631Z,1006.60
2022-11-27T00:03:52.726Z,1006.60
2022-11-27T00:04:03.106Z,1006.61
2022-11-27T00:04:13.409Z,1006.61
2022-11-27T00:04:23.611Z,1006.62
2022-11-27T00:04:33.860Z,1006.62
2022-11-27T00:04:44.108Z,1006.62
2022-11-27T00:04:54.353Z,1006.62
2022-11-27T00:05:04.594Z,1006.62
2022-11-27T00:05:14.843Z,1006.62
2022-11-27T00:05:25.085Z,1006.61
2022-11-27T00:05:35.327Z,1006.61
2022-11-27T00:05:45.580Z,1006.61
2022-11-27T00:05:55.823Z,1006.60
2022-11-27T00:06:06.064Z,1006.60
2022-11-27T00:06:16.324Z,1006.60
2022-11-27T00:06:26.566Z,1006.61
2022-11-27T00:06:36.812Z,1006.61
2022-11-27T00:06:47.069Z,1006.62
2022-11-27T00:06:57.311Z,1006.62
2022-11-27T00:07:07.557Z,1006.63
2022-11-27T00:07:17.858Z,1006.63
2022-11-27T00:07:28.143Z,1006.63
2022-11-27T00:07:38.487Z,1006.62
2022-11-27T00:07:48.810Z,1006.62
2022-11-27T00:07:59.160Z,1006.61
2022-11-27T00:08:09.371Z,1006.61
2022-11-27T00:08:19.609Z,1006.61
2022-11-27T00:08:29.854Z,1006.61
2022-11-27T00:08:40.105Z,1006.60
2022-11-27T00:08:50.346Z,1006.58
2022-11-27T00:09:00.598Z,1006.57
2022-11-27T00:09:10.851Z,1006.57
2022-11-27T00:09:21.081Z,1006.57
2022-11-27T00:09:31.328Z,1006.57
2022-11-27T00:09:41.960Z,1006.57
2022-11-27T00:09:51.844Z,1006.58
2022-11-27T00:10:02.110Z,1006.57
2022-11-27T00:10:12.348Z,1006.56
2022-11-27T00:10:22.597Z,1006.54
2022-11-27T00:10:32.834Z,1006.52
2022-11-27T00:10:43.087Z,1006.53
2022-11-27T00:10:53.330Z,1006.54
2022-11-27T00:11:03.571Z,1006.54
2022-11-27T00:11:13.822Z,1006.54
2022-11-27T00:11:24.087Z,1006.53
2022-11-27T00:11:34.332Z,1006.53
2022-11-27T00:11:44.580Z,1006.53
2022-11-27T00:11:54.832Z,1006.53
2022-11-27T00:12:05.071Z,1006.54
2022-11-27T00:12:15.316Z,1006.55
2022-11-27T00:12:25.557Z,1006.55
2022-11-27T00:12:35.808Z,1006.55
2022-11-27T00:12:46.057Z,1006.54
2022-11-27T00:12:56.303Z,1006.55
2022-11-27T00:13:06.548Z,1006.53
2022-11-27T00:13:16.788Z,1006.54
2022-11-27T00:13:27.031Z,1006.55
2022-11-27T00:13:37.275Z,1006.56
2022-11-27T00:13:47.524Z,1006.56
2022-11-27T00:13:57.767Z,1006.57
2022-11-27T00:14:08.012Z,1006.57
2022-11-27T00:14:18.253Z,1006.57
2022-11-27T00:14:28.502Z,1006.57
2022-11-27T00:14:38.750Z,1006.57
2022-11-27T00:14:53.385Z,1006.58
2022-11-27T00:15:00.411Z,1006.60
2022-11-27T00:15:14.618Z,1006.60
2022-11-27T00:15:21.213Z,1006.61
2022-11-27T00:15:30.649Z,1006.61
2022-11-27T00:15:40.917Z,1006.61
2022-11-27T00:15:51.160Z,1006.61
2022-11-27T00:16:01.490Z,1006.60
2022-11-27T00:16:11.786Z,1006.59
2022-11-27T00:16:22.178Z,1006.59
2022-11-27T00:16:32.524Z,1006.58
2022-11-27T00:16:42.772Z,1006.57
2022-11-27T00:16:53.016Z,1006.56
2022-11-27T00:17:03.273Z,1006.56
2022-11-27T00:17:13.513Z,1006.56
2022-11-27T00:17:23.756Z,1006.56
2022-11-27T00:17:34.001Z,1006.56
2022-11-27T00:17:44.251Z,1006.55
2022-11-27T00:17:54.493Z,1006.55
2022-11-27T00:18:04.744Z,1006.54
2022-11-27T00:18:15.002Z,1006.53
2022-11-27T00:18:25.224Z,1006.54
2022-11-27T00:18:35.472Z,1006.54
2022-11-27T00:18:45.717Z,1006.55
2022-11-27T00:18:55.962Z,1006.55
2022-11-27T00:19:06.205Z,1006.55
2022-11-27T00:19:16.448Z,1006.55
2022-11-27T00:19:26.691Z,1006.55
2022-11-27T00:19:37.187Z,1006.54
2022-11-27T00:19:47.181Z,1006.54
2022-11-27T00:19:57.428Z,1006.52
2022-11-27T00:20:07.672Z,1006.51
2022-11-27T00:20:17.920Z,1006.50
2022-11-27T00:20:29.787Z,1006.50
2022-11-27T00:20:38.448Z,1006.49
2022-11-27T00:20:48.685Z,1006.49
2022-11-27T00:20:58.935Z,1006.49
2022-11-27T00:21:09.178Z,1006.50
2022-11-27T00:21:19.433Z,1006.50
2022-11-27T00:21:29.679Z,1006.51
2022-11-27T00:21:39.923Z,1006.51
2022-11-27T00:21:50.164Z,1006.51
2022-11-27T00:22:00.422Z,1006.52
2022-11-27T00:22:10.662Z,1006.52
2022-11-27T00:22:20.901Z,1006.52
2022-11-27T00:22:31.147Z,1006.52
2022-11-27T00:22:41.392Z,1006.53
2022-11-27T00:22:51.643Z,1006.53
2022-11-27T00:23:01.880Z,1006.53
2022-11-27T00:23:12.133Z,1006.53
2022-11-27T00:23:22.372Z,1006.54
2022-11-27T00:23:32.619Z,1006.54
2022-11-27T00:23:42.865Z,1006.54
2022-11-27T00:23:53.119Z,1006.55
2022-11-27T00:24:03.368Z,1006.55
2022-11-27T00:24:13.596Z,1006.55
2022-11-27T00:24:23.847Z,1006.55
2022-11-27T00:24:34.088Z,1006.54
2022-11-27T00:24:44.330Z,1006.53
2022-11-27T00:24:54.574Z,1006.53
2022-11-27T00:25:04.818Z,1006.52
2022-11-27T00:25:15.069Z,1006.52
2022-11-27T00:25:25.311Z,1006.51
2022-11-27T00:25:35.554Z,1006.52
2022-11-27T00:25:45.801Z,1006.53
2022-11-27T00:25:56.048Z,1006.54
2022-11-27T00:26:06.291Z,1006.55
2022-11-27T00:26:16.542Z,1006.55
2022-11-27T00:26:26.799Z,1006.56
2022-11-27T00:26:38.367Z,1006.53
2022-11-27T00:26:47.460Z,1006.53
2022-11-27T00:26:57.707Z,1006.53
2022-11-27T00:27:07.950Z,1006.53
2022-11-27T00:27:18.203Z,1006.54
2022-11-27T00:27:28.520Z,1006.55
2022-11-27T00:27:38.734Z,1006.55
2022-11-27T00:27:48.976Z,1006.55
2022-11-27T00:27:59.222Z,1006.55
2022-11-27T00:28:09.465Z,1006.54
2022-11-27T00:28:19.711Z,1006.55
2022-11-27T00:28:29.956Z,1006.54
2022-11-27T00:28:40.198Z,1006.54
2022-11-27T00:28:50.443Z,1006.53
2022-11-27T00:29:00.689Z,1006.53
2022-11-27T00:29:10.936Z,1006.52
2022-11-27T00:29:21.183Z,1006.52
2022-11-27T00:29:31.431Z,1006.52
2022-11-27T00:29:41.671Z,1006.53
2022-11-27T00:29:51.912Z,1006.53
2022-11-27T00:30:02.159Z,1006.53
2022-11-27T00:30:12.405Z,1006.53
2022-11-27T00:30:22.657Z,1006.54
2022-11-27T00:30:32.892Z,1006.53
2022-11-27T00:30:43.235Z,1006.52
2022-11-27T00:30:53.572Z,1006.52
2022-11-27T00:31:03.921Z,1006.52
2022-11-27T00:31:14.257Z,1006.51
2022-11-27T00:31:24.622Z,1006.50
2022-11-27T00:31:34.890Z,1006.49
2022-11-27T00:31:45.192Z,1006.48
2022-11-27T00:31:55.406Z,1006.48
2022-11-27T00:32:05.654Z,1006.48
2022-11-27T00:32:15.897Z,1006.48
2022-11-27T00:32:26.149Z,1006.48
2022-11-27T00:32:36.387Z,1006.49
2022-11-27T00:32:46.636Z,1006.48
2022-11-27T00:32:56.892Z,1006.46
2022-11-27T00:33:07.136Z,1006.46
2022-11-27T00:33:17.382Z,1006.45
2022-11-27T00:33:27.646Z,1006.45
2022-11-27T00:33:37.870Z,1006.45
2022-11-27T00:33:48.115Z,1006.44
2022-11-27T00:33:58.358Z,1006.44
2022-11-27T00:34:08.694Z,1006.44
2022-11-27T00:34:18.919Z,1006.45
2022-11-27T00:34:29.165Z,1006.44
2022-11-27T00:34:39.657Z,1006.44
2022-11-27T00:34:49.766Z,1006.45
2022-11-27T00:35:00.006Z,1006.46
2022-11-27T00:35:10.253Z,1006.47
2022-11-27T00:35:20.499Z,1006.43
2022-11-27T00:35:30.744Z,1006.42
2022-11-27T00:35:40.994Z,1006.43
2022-11-27T00:35:51.229Z,1006.43
2022-11-27T00:36:01.471Z,1006.44
2022-11-27T00:36:11.725Z,1006.43
2022-11-27T00:36:21.979Z,1006.41
2022-11-27T00:36:32.228Z,1006.40
2022-11-27T00:36:46.655Z,1006.40
2022-11-27T00:36:53.893Z,1006.40
2022-11-27T00:37:03.270Z,1006.41
2022-11-27T00:37:13.517Z,1006.41
2022-11-27T00:37:23.763Z,1006.41
2022-11-27T00:37:34.009Z,1006.41
2022-11-27T00:37:44.255Z,1006.39
2022-11-27T00:37:54.498Z,1006.39
2022-11-27T00:38:04.744Z,1006.38
2022-11-27T00:38:14.987Z,1006.38
2022-11-27T00:38:25.230Z,1006.39
2022-11-27T00:38:38.818Z,1006.39
2022-11-27T00:38:45.789Z,1006.39
2022-11-27T00:38:56.034Z,1006.39
2022-11-27T00:39:06.275Z,1006.37
2022-11-27T00:39:16.524Z,1006.35
2022-11-27T00:39:26.765Z,1006.34
2022-11-27T00:39:37.015Z,1006.35
2022-11-27T00:39:47.260Z,1006.36
2022-11-27T00:39:57.511Z,1006.37
2022-11-27T00:40:07.753Z,1006.37
2022-11-27T00:40:18.009Z,1006.36
2022-11-27T00:40:28.244Z,1006.35
2022-11-27T00:40:38.483Z,1006.34
2022-11-27T00:40:48.741Z,1006.34
2022-11-27T00:40:59.040Z,1006.33
2022-11-27T00:41:09.362Z,1006.32
2022-11-27T00:41:19.583Z,1006.32
2022-11-27T00:41:29.868Z,1006.32
2022-11-27T00:41:40.084Z,1006.31
2022-11-27T00:41:50.357Z,1006.31
2022-11-27T00:42:00.583Z,1006.30
2022-11-27T00:42:10.826Z,1006.30
2022-11-27T00:42:21.071Z,1006.31
2022-11-27T00:42:31.317Z,1006.30
2022-11-27T00:42:41.560Z,1006.30
2022-11-27T00:42:51.805Z,1006.30
2022-11-27T00:43:02.051Z,1006.30
2022-11-27T00:43:12.300Z,1006.29
2022-11-27T00:43:22.554Z,1006.28
2022-11-27T00:43:43.223Z,1006.28
2022-11-27T00:43:45.266Z,1006.28
2022-11-27T00:43:53.447Z,1006.28
2022-11-27T00:44:03.691Z,1006.28
2022-11-27T00:44:13.928Z,1006.29
2022-11-27T00:44:24.179Z,1006.30
2022-11-27T00:44:34.457Z,1006.30
2022-11-27T00:44:44.695Z,1006.31
2022-11-27T00:44:54.933Z,1006.31
2022-11-27T00:45:05.176Z,1006.31
2022-11-27T00:45:15.423Z,1006.32
2022-11-27T00:45:25.670Z,1006.32
2022-11-27T00:45:35.911Z,1006.32
2022-11-27T00:45:46.161Z,1006.33
2022-11-27T00:45:56.467Z,1006.33
2022-11-27T00:46:06.747Z,1006.33
2022-11-27T00:46:17.100Z,1006.33
2022-11-27T00:46:29.037Z,1006.33
2022-11-27T00:46:37.835Z,1006.32
2022-11-27T00:46:48.155Z,1006.32
2022-11-27T00:46:58.420Z,1006.32
2022-11-27T00:47:08.705Z,1006.32
2022-11-27T00:47:18.926Z,1006.31
2022-11-27T00:47:29.173Z,1006.30
2022-11-27T00:47:39.416Z,1006.29
2022-11-27T00:47:49.686Z,1006.28
2022-11-27T00:47:59.938Z,1006.27
2022-11-27T00:48:10.179Z,1006.26
2022-11-27T00:48:20.422Z,1006.26
2022-11-27T00:48:30.709Z,1006.25
2022-11-27T00:48:40.928Z,1006.24
2022-11-27T00:48:51.179Z,1006.24
2022-11-27T00:49:01.456Z,1006.24
2022-11-27T00:49:11.662Z,1006.24
2022-11-27T00:49:21.905Z,1006.25
2022-11-27T00:49:32.155Z,1006.25
2022-11-27T00:49:42.393Z,1006.25
2022-11-27T00:49:52.643Z,1006.26
2022-11-27T00:50:02.885Z,1006.26
2022-11-27T00:50:13.142Z,1006.27
2022-11-27T00:50:23.378Z,1006.26
2022-11-27T00:50:33.622Z,1006.26
2022-11-27T00:50:43.861Z,1006.26
2022-11-27T00:50:54.109Z,1006.26
2022-11-27T00:51:04.352Z,1006.26
2022-11-27T00:51:14.653Z,1006.25
2022-11-27T00:51:24.919Z,1006.24
2022-11-27T00:51:35.139Z,1006.23
2022-11-27T00:51:45.386Z,1006.23
2022-11-27T00:51:55.630Z,1006.23
2022-11-27T00:52:05.872Z,1006.22
2022-11-27T00:52:16.120Z,1006.21
2022-11-27T00:52:26.362Z,1006.21
2022-11-27T00:52:36.612Z,1006.22
2022-11-27T00:52:46.852Z,1006.22
2022-11-27T00:52:57.096Z,1006.22
2022-11-27T00:53:07.339Z,1006.22
2022-11-27T00:53:17.588Z,1006.22
2022-11-27T00:53:27.831Z,1006.22
2022-11-27T00:53:38.073Z,1006.22
2022-11-27T00:53:48.337Z,1006.23
2022-11-27T00:53:58.570Z,1006.24
2022-11-27T00:54:08.813Z,1006.25
2022-11-27T00:54:21.799Z,1006.26
2022-11-27T00:54:29.334Z,1006.27
2022-11-27T00:54:39.869Z,1006.27
2022-11-27T00:54:49.866Z,1006.27
2022-11-27T00:55:00.112Z,1006.27
2022-11-27T00:55:10.356Z,1006.28
2022-11-27T00:55:20.602Z,1006.27
2022-11-27T00:55:30.844Z,1006.27
2022-11-27T00:55:41.858Z,1006.27
2022-11-27T00:55:51.460Z,1006.28
2022-11-27T00:56:01.705Z,1006.27
2022-11-27T00:56:11.951Z,1006.27
2022-11-27T00:56:22.197Z,1006.27
2022-11-27T00:56:32.457Z,1006.27
2022-11-27T00:56:42.709Z,1006.27
2022-11-27T00:56:52.947Z,1006.27
2022-11-27T00:57:03.190Z,1006.27
2022-11-27T00:57:13.435Z,1006.26
2022-11-27T00:57:23.683Z,1006.26
2022-11-27T00:57:33.924Z,1006.26
2022-11-27T00:57:44.205Z,1006.25
2022-11-27T00:57:54.479Z,1006.25
2022-11-27T00:58:04.685Z,1006.24
2022-11-27T00:58:14.949Z,1006.24
2022-11-27T00:58:25.181Z,1006.24
2022-11-27T00:58:35.427Z,1006.23
2022-11-27T00:58:45.665Z,1006.22
2022-11-27T00:58:55.912Z,1006.22
2022-11-27T00:59:06.187Z,1006.22
2022-11-27T00:59:16.420Z,1006.22
2022-11-27T00:59:26.668Z,1006.22
2022-11-27T00:59:36.900Z,1006.22
2022-11-27T00:59:47.145Z,1006.23
2022-11-27T00:59:57.394Z,1006.23
2022-11-27T01:00:07.637Z,1006.22
2022-11-27T01:00:17.939Z,1006.22
2022-11-27T01:00:28.157Z,1006.22
2022-11-27T01:00:38.401Z,1006.21
2022-11-27T01:00:48.644Z,1006.21
2022-11-27T01:00:58.898Z,1006.20
2022-11-27T01:01:09.142Z,1006.19
2022-11-27T01:01:19.434Z,1006.18
2022-11-27T01:01:29.747Z,1006.18
2022-11-27T01:01:40.040Z,1006.19
2022-11-27T01:01:50.394Z,1006.20
2022-11-27T01:02:00.704Z,1006.20
2022-11-27T01:02:11.025Z,1006.19
2022-11-27T01:02:21.325Z,1006.19
2022-11-27T01:02:31.604Z,1006.18
2022-11-27T01:02:41.896Z,1006.18
2022-11-27T01:02:52.268Z,1006.18
2022-11-27T01:03:02.539Z,1006.18
2022-11-27T01:03:12.890Z,1006.19
2022-11-27T01:03:23.098Z,1006.19
2022-11-27T01:03:33.360Z,1006.20
2022-11-27T01:03:43.585Z,1006.21
2022-11-27T01:03:53.842Z,1006.22
2022-11-27T01:04:04.076Z,1006.23
2022-11-27T01:04:14.321Z,1006.25
2022-11-27T01:04:24.565Z,1006.26
2022-11-27T01:04:34.808Z,1006.26
2022-11-27T01:04:45.056Z,1006.26
2022-11-27T01:04:55.299Z,1006.26
2022-11-27T01:05:05.542Z,1006.27
2022-11-27T01:05:15.789Z,1006.25
2022-11-27T01:05:26.033Z,1006.24
2022-11-27T01:05:36.280Z,1006.24
2022-11-27T01:05:46.522Z,1006.24
2022-11-27T01:05:56.770Z,1006.23
2022-11-27T01:06:07.012Z,1006.23
2022-11-27T01:06:17.259Z,1006.22
2022-11-27T01:06:27.517Z,1006.21
2022-11-27T01:06:37.770Z,1006.20
2022-11-27T01:06:48.010Z,1006.19
2022-11-27T01:06:58.251Z,1006.19
2022-11-27T01:07:08.501Z,1006.19
2022-11-27T01:07:18.777Z,1006.19
2022-11-27T01:07:29.157Z,1006.19
2022-11-27T01:07:39.453Z,1006.20
2022-11-27T01:07:49.787Z,1006.20
2022-11-27T01:08:00.023Z,1006.20
2022-11-27T01:08:10.268Z,1006.20
2022-11-27T01:08:20.530Z,1006.20
2022-11-27T01:08:30.790Z,1006.19
2022-11-27T01:08:41.042Z,1006.19
2022-11-27T01:08:51.300Z,1006.19
2022-11-27T01:09:01.533Z,1006.21
2022-11-27T01:09:11.786Z,1006.21
2022-11-27T01:09:22.023Z,1006.22
2022-11-27T01:09:32.268Z,1006.21
2022-11-27T01:09:42.513Z,1006.20
2022-11-27T01:09:52.757Z,1006.21
2022-11-27T01:10:03.000Z,1006.22
2022-11-27T01:10:13.248Z,1006.23
2022-11-27T01:10:23.491Z,1006.23
2022-11-27T01:10:33.742Z,1006.24
2022-11-27T01:10:43.996Z,1006.24
2022-11-27T01:10:55.037Z,1006.23
2022-11-27T01:11:04.603Z,1006.22
2022-11-27T01:11:14.852Z,1006.22
2022-11-27T01:11:25.106Z,1006.22
2022-11-27T01:11:35.349Z,1006.22
2022-11-27T01:11:45.712Z,1006.21
2022-11-27T01:11:55.939Z,1006.19
2022-11-27T01:12:06.187Z,1006.19
2022-11-27T01:12:16.428Z,1006.19
2022-11-27T01:12:26.673Z,1006.20
2022-11-27T01:12:36.924Z,1006.21
2022-11-27T01:12:47.166Z,1006.20
2022-11-27T01:12:57.412Z,1006.20
2022-11-27T01:13:07.650Z,1006.20
2022-11-27T01:13:17.899Z,1006.20
2022-11-27T01:13:28.141Z,1006.21
2022-11-27T01:13:38.385Z,1006.22
2022-11-27T01:13:48.636Z,1006.23
2022-11-27T01:13:58.877Z,1006.24
2022-11-27T01:14:09.121Z,1006.24
2022-11-27T01:14:19.378Z,1006.24
2022-11-27T01:14:29.621Z,1006.24
2022-11-27T01:14:40.182Z,1006.23
2022-11-27T01:14:50.142Z,1006.24
2022-11-27T01:15:00.394Z,1006.25
2022-11-27T01:15:10.636Z,1006.27
2022-11-27T01:15:20.883Z,1006.28
2022-11-27T01:15:31.123Z,1006.27
2022-11-27T01:15:41.425Z,1006.27
2022-11-27T01:15:51.688Z,1006.27
2022-11-27T01:16:01.936Z,1006.29
2022-11-27T01:16:12.195Z,1006.31
2022-11-27T01:16:22.521Z,1006.31
2022-11-27T01:16:32.890Z,1006.30
2022-11-27T01:16:43.591Z,1006.28
2022-11-27T01:16:53.455Z,1006.27
2022-11-27T01:17:03.773Z,1006.28
2022-11-27T01:17:14.012Z,1006.29
2022-11-27T01:17:24.257Z,1006.29
2022-11-27T01:17:34.502Z,1006.29
2022-11-27T01:17:44.749Z,1006.29
2022-11-27T01:17:55.012Z,1006.30
2022-11-27T01:18:05.262Z,1006.31
2022-11-27T01:18:15.502Z,1006.31
2022-11-27T01:18:25.750Z,1006.32
2022-11-27T01:18:36.009Z,1006.32
2022-11-27T01:18:46.258Z,1006.32
2022-11-27T01:18:56.484Z,1006.32
2022-11-27T01:19:06.731Z,1006.32
2022-11-27T01:19:16.984Z,1006.33
2022-11-27T01:19:27.257Z,1006.32
2022-11-27T01:19:37.487Z,1006.31
2022-11-27T01:19:47.728Z,1006.31
2022-11-27T01:19:57.974Z,1006.32
2022-11-27T01:20:08.215Z,1006.32
2022-11-27T01:20:18.475Z,1006.32
2022-11-27T01:20:28.714Z,1006.34
2022-11-27T01:20:38.957Z,1006.34
2022-11-27T01:20:49.195Z,1006.34
2022-11-27T01:20:59.448Z,1006.34
2022-11-27T01:21:09.686Z,1006.34
2022-11-27T01:21:19.944Z,1006.35
2022-11-27T01:21:30.193Z,1006.35
2022-11-27T01:21:40.432Z,1006.35
2022-11-27T01:21:50.685Z,1006.36
2022-11-27T01:22:00.925Z,1006.35
2022-11-27T01:22:11.169Z,1006.35
2022-11-27T01:22:21.413Z,1006.36
2022-11-27T01:22:31.658Z,1006.36
2022-11-27T01:22:41.904Z,1006.38
2022-11-27T01:22:52.146Z,1006.38
2022-11-27T01:23:02.393Z,1006.38
2022-11-27T01:23:12.636Z,1006.37
2022-11-27T01:23:22.883Z,1006.37
2022-11-27T01:23:33.125Z,1006.37
2022-11-27T01:23:43.370Z,1006.37
2022-11-27T01:23:53.616Z,1006.36
2022-11-27T01:24:03.869Z,1006.37
2022-11-27T01:24:14.110Z,1006.37
2022-11-27T01:24:24.354Z,1006.36
2022-11-27T01:24:34.596Z,1006.34
2022-11-27T01:24:44.844Z,1006.34
2022-11-27T01:24:55.090Z,1006.35
2022-11-27T01:25:05.333Z,1006.35
2022-11-27T01:25:15.580Z,1006.36
2022-11-27T01:25:27.220Z,1006.35
2022-11-27T01:25:36.187Z,1006.34
2022-11-27T01:25:46.435Z,1006.34
2022-11-27T01:25:56.678Z,1006.32
2022-11-27T01:26:06.928Z,1006.31
2022-11-27T01:26:17.167Z,1006.30
2022-11-27T01:26:27.433Z,1006.29
2022-11-27T01:26:37.673Z,1006.29
2022-11-27T01:26:47.918Z,1006.30
2022-11-27T01:26:58.163Z,1006.31
2022-11-27T01:27:08.406Z,1006.29
2022-11-27T01:27:18.653Z,1006.29
2022-11-27T01:27:28.896Z,1006.28
2022-11-27T01:27:39.151Z,1006.27
2022-11-27T01:27:49.390Z,1006.26
2022-11-27T01:27:59.633Z,1006.24
2022-11-27T01:28:09.875Z,1006.23
2022-11-27T01:28:20.123Z,1006.24
2022-11-27T01:28:30.368Z,1006.24
2022-11-27T01:28:40.620Z,1006.24
2022-11-27T01:28:50.858Z,1006.23
2022-11-27T01:29:01.104Z,1006.24
2022-11-27T01:29:11.346Z,1006.24
2022-11-27T01:29:21.624Z,1006.25
2022-11-27T01:29:31.856Z,1006.26
2022-11-27T01:29:42.102Z,1006.25
2022-11-27T01:29:52.374Z,1006.26
2022-11-27T01:30:02.599Z,1006.25
2022-11-27T01:30:12.846Z,1006.23
2022-11-27T01:30:23.095Z,1006.22
2022-11-27T01:30:33.346Z,1006.22
2022-11-27T01:30:43.585Z,1006.22
2022-11-27T01:30:53.850Z,1006.22
2022-11-27T01:31:04.101Z,1006.22
2022-11-27T01:31:14.407Z,1006.23
2022-11-27T01:31:24.807Z,1006.25
2022-11-27T01:31:35.132Z,1006.24
2022-11-27T01:31:45.551Z,1006.24
2022-11-27T01:31:55.584Z,1006.24
2022-11-27T01:32:05.838Z,1006.25
2022-11-27T01:32:16.077Z,1006.24
2022-11-27T01:32:26.319Z,1006.23
2022-11-27T01:32:36.561Z,1006.25
2022-11-27T01:32:46.813Z,1006.24
2022-11-27T01:32:57.056Z,1006.22
2022-11-27T01:33:07.300Z,1006.21
2022-11-27T01:33:17.541Z,1006.21
2022-11-27T01:33:27.785Z,1006.20
2022-11-27T01:33:38.028Z,1006.20
2022-11-27T01:33:48.277Z,1006.20
2022-11-27T01:33:58.541Z,1006.19
2022-11-27T01:34:08.772Z,1006.18
2022-11-27T01:34:19.017Z,1006.17
2022-11-27T01:34:29.261Z,1006.17
2022-11-27T01:34:39.852Z,1006.18
2022-11-27T01:34:49.826Z,1006.17
2022-11-27T01:35:00.083Z,1006.17
2022-11-27T01:35:10.318Z,1006.17
2022-11-27T01:35:20.566Z,1006.15
2022-11-27T01:35:33.640Z,1006.16
2022-11-27T01:35:41.211Z,1006.15
2022-11-27T01:35:51.457Z,1006.13
2022-11-27T01:36:01.703Z,1006.11
2022-11-27T01:36:11.952Z,1006.10
2022-11-27T01:36:22.191Z,1006.13
2022-11-27T01:36:32.448Z,1006.15
2022-11-27T01:36:42.695Z,1006.07
2022-11-27T01:36:52.941Z,1006.08
2022-11-27T01:37:03.181Z,1006.09
2022-11-27T01:37:13.430Z,1006.06
2022-11-27T01:37:23.673Z,1006.08
2022-11-27T01:37:33.926Z,1006.08
2022-11-27T01:37:44.166Z,1006.07
2022-11-27T01:37:54.406Z,1006.08
2022-11-27T01:38:04.658Z,1006.10
2022-11-27T01:38:14.895Z,1006.08
2022-11-27T01:38:25.140Z,1006.04
2022-11-27T01:38:35.384Z,1006.04
2022-11-27T01:38:45.633Z,1006.04
2022-11-27T01:38:55.877Z,1006.03
2022-11-27T01:39:06.117Z,1006.03
2022-11-27T01:39:16.363Z,1006.04
2022-11-27T01:39:26.609Z,1006.03
2022-11-27T01:39:36.851Z,1006.02
2022-11-27T01:39:47.095Z,1006.02
2022-11-27T01:39:57.340Z,1006.04
2022-11-27T01:40:07.586Z,1006.06
2022-11-27T01:40:17.832Z,1006.05
2022-11-27T01:40:28.074Z,1006.05
2022-11-27T01:40:38.325Z,1006.04
2022-11-27T01:40:48.562Z,1006.05
2022-11-27T01:40:58.813Z,1006.05
2022-11-27T01:41:09.048Z,1006.05
2022-11-27T01:41:19.293Z,1006.05
2022-11-27T01:41:29.566Z,1006.06
2022-11-27T01:41:39.841Z,1006.07
2022-11-27T01:41:50.069Z,1006.05
2022-11-27T01:42:00.319Z,1006.03
2022-11-27T01:42:10.567Z,1006.04
2022-11-27T01:42:20.801Z,1006.04
2022-11-27T01:42:31.051Z,1006.05
2022-11-27T01:42:41.304Z,1006.04
2022-11-27T01:42:51.539Z,1006.04
2022-11-27T01:43:01.784Z,1006.03
2022-11-27T01:43:12.031Z,1006.03
2022-11-27T01:43:22.275Z,1006.02
2022-11-27T01:43:32.520Z,1006.02
2022-11-27T01:43:42.765Z,1006.02
2022-11-27T01:43:53.015Z,1006.03
2022-11-27T01:44:03.254Z,1006.00
2022-11-27T01:44:13.503Z,1005.99
2022-11-27T01:44:23.769Z,1006.00
2022-11-27T01:44:33.995Z,1006.01
2022-11-27T01:44:44.238Z,1006.00
2022-11-27T01:44:54.481Z,1005.98
2022-11-27T01:45:04.727Z,1005.97
2022-11-27T01:45:14.970Z,1005.97
2022-11-27T01:45:25.219Z,1005.96
2022-11-27T01:45:35.462Z,1005.95
2022-11-27T01:45:45.713Z,1005.95
2022-11-27T01:45:55.969Z,1005.96
2022-11-27T01:46:06.320Z,1005.96
2022-11-27T01:46:16.642Z,1005.94
2022-11-27T01:46:27.011Z,1005.92
2022-11-27T01:46:37.323Z,1005.92
2022-11-27T01:46:47.669Z,1005.94
2022-11-27T01:46:57.990Z,1005.96
2022-11-27T01:47:08.236Z,1005.93
2022-11-27T01:47:18.483Z,1005.96
2022-11-27T01:47:28.755Z,1005.98
2022-11-27T01:47:39.009Z,1005.98
2022-11-27T01:47:49.228Z,1005.96
2022-11-27T01:47:59.473Z,1005.95
2022-11-27T01:48:09.718Z,1005.94
2022-11-27T01:48:19.961Z,1005.95
2022-11-27T01:48:30.206Z,1005.97
2022-11-27T01:48:40.458Z,1005.96
2022-11-27T01:48:50.695Z,1005.94
2022-11-27T01:49:00.962Z,1005.94
2022-11-27T01:49:11.188Z,1005.96
2022-11-27T01:49:21.440Z,1005.97
2022-11-27T01:49:31.676Z,1005.97
2022-11-27T01:49:41.920Z,1005.96
2022-11-27T01:49:52.163Z,1005.98
2022-11-27T01:50:02.411Z,1006.00
2022-11-27T01:50:12.652Z,1006.00
2022-11-27T01:50:22.908Z,1005.99
2022-11-27T01:50:33.146Z,1005.98
2022-11-27T01:50:43.393Z,1005.97
2022-11-27T01:50:53.631Z,1005.96
2022-11-27T01:51:03.882Z,1005.96
2022-11-27T01:51:14.130Z,1005.96
2022-11-27T01:51:24.370Z,1005.96
2022-11-27T01:51:34.629Z,1005.95
2022-11-27T01:51:44.881Z,1005.95
2022-11-27T01:51:55.128Z,1005.95
2022-11-27T01:52:05.369Z,1005.96
2022-11-27T01:52:15.611Z,1005.98
2022-11-27T01:52:25.858Z,1005.99
2022-11-27T01:52:36.102Z,1005.98
2022-11-27T01:52:46.351Z,1005.98
2022-11-27T01:52:56.635Z,1005.98
2022-11-27T01:53:06.868Z,1005.98
2022-11-27T01:53:17.126Z,1005.99
2022-11-27T01:53:27.361Z,1005.98
2022-11-27T01:53:37.605Z,1005.98
2022-11-27T01:53:47.884Z,1005.96
2022-11-27T01:53:58.146Z,1005.96
2022-11-27T01:54:08.371Z,1005.96
2022-11-27T01:54:18.614Z,1005.95
2022-11-27T01:54:28.901Z,1005.94
2022-11-27T01:54:39.530Z,1005.94
2022-11-27T01:54:49.454Z,1005.94
2022-11-27T01:54:59.699Z,1005.95
2022-11-27T01:55:09.942Z,1005.94
2022-11-27T01:55:20.189Z,1005.93
2022-11-27T01:55:30.433Z,1005.93
2022-11-27T01:55:40.695Z,1005.91
2022-11-27T01:55:50.933Z,1005.91
2022-11-27T01:56:01.168Z,1005.92
2022-11-27T01:56:11.410Z,1005.92
2022-11-27T01:56:21.656Z,1005.92
2022-11-27T01:56:31.925Z,1005.91
2022-11-27T01:56:42.164Z,1005.91
2022-11-27T01:56:52.412Z,1005.90
2022-11-27T01:57:02.658Z,1005.89
2022-11-27T01:57:12.899Z,1005.89
2022-11-27T01:57:23.145Z,1005.90
2022-11-27T01:57:33.391Z,1005.90
2022-11-27T01:57:43.635Z,1005.91
2022-11-27T01:57:53.882Z,1005.91
2022-11-27T01:58:04.124Z,1005.91
2022-11-27T01:58:14.368Z,1005.90
2022-11-27T01:58:24.624Z,1005.90
2022-11-27T01:58:34.863Z,1005.89
2022-11-27T01:58:45.116Z,1005.88
2022-11-27T01:58:55.353Z,1005.89
2022-11-27T01:59:05.590Z,1005.90
2022-11-27T01:59:15.887Z,1005.88
2022-11-27T01:59:26.092Z,1005.88
2022-11-27T01:59:36.356Z,1005.86
2022-11-27T01:59:46.604Z,1005.87
2022-11-27T01:59:56.830Z,1005.87
2022-11-27T02:00:07.075Z,1005.87
2022-11-27T02:00:17.339Z,1005.87
2022-11-27T02:00:27.607Z,1005.87
2022-11-27T02:00:37.828Z,1005.87
2022-11-27T02:00:48.069Z,1005.90
2022-11-27T02:00:58.311Z,1005.91
2022-11-27T02:01:08.558Z,1005.90
2022-11-27T02:01:18.845Z,1005.89
2022-11-27T02:01:29.201Z,1005.89
2022-11-27T02:01:39.470Z,1005.87
2022-11-27T02:01:49.753Z,1005.88
2022-11-27T02:02:00.047Z,1005.90
2022-11-27T02:02:10.426Z,1005.90
2022-11-27T02:02:20.690Z,1005.89
2022-11-27T02:02:30.986Z,1005.89
2022-11-27T02:02:41.287Z,1005.88
2022-11-27T02:02:51.648Z,1005.88
2022-11-27T02:03:01.973Z,1005.87
2022-11-27T02:03:12.348Z,1005.86
2022-11-27T02:03:22.718Z,1005.86
2022-11-27T02:03:32.925Z,1005.86
2022-11-27T02:03:43.169Z,1005.85
2022-11-27T02:03:53.417Z,1005.85
2022-11-27T02:04:03.683Z,1005.86